Centreville, Mississippi
Current Conditions -  °F | °C
As of 7:35 PM on Friday 28 Nov 2014 (Local Time) from KHZR Reporting Station
Scattered Clouds Scattered Clouds  
Wind Chill: 52°   Ceiling: Unl
Heat Index: 52°   Visibility: 10mi
Dew Point: 37°   Wind: 6mph
Humidity: 56%   Direction: 130°SE
Pressure: 30.26"   Gusts: NA
Location:  31.09°N, 91.07°W
Report Text: KHZR 290135Z AUTO 13005KT 10SM SCT033 11/03 A3026 RMK AO2 T01100025
Loading
Personal Weather Stations






























Interactive Weather Map New forecast layout! Learn more

10-Day Weather Forecast

Advertisements
Track Severe Weather on mobile